sensor_id;sensor_type;location;lat;lon;timestamp;pressure;altitude;pressure_sealevel;temperature
71630;BMP280;59479;51.902;8.212;2022-12-10T00:01:35;100295.44;;;3.03
71630;BMP280;59479;51.902;8.212;2022-12-10T00:04:02;100294.56;;;3.03
71630;BMP280;59479;51.902;8.212;2022-12-10T00:06:29;100288.91;;;3.07
71630;BMP280;59479;51.902;8.212;2022-12-10T00:08:55;100294.75;;;3.09
71630;BMP280;59479;51.902;8.212;2022-12-10T00:11:22;100293.94;;;3.10
71630;BMP280;59479;51.902;8.212;2022-12-10T00:13:48;100297.31;;;3.12
71630;BMP280;59479;51.902;8.212;2022-12-10T00:16:17;100298.00;;;3.08
71630;BMP280;59479;51.902;8.212;2022-12-10T00:18:43;100300.56;;;3.11
71630;BMP280;59479;51.902;8.212;2022-12-10T00:21:10;100302.34;;;3.15
71630;BMP280;59479;51.902;8.212;2022-12-10T00:23:37;100304.16;;;3.22
71630;BMP280;59479;51.902;8.212;2022-12-10T00:26:16;100300.72;;;3.17
71630;BMP280;59479;51.902;8.212;2022-12-10T00:28:42;100303.09;;;3.12
71630;BMP280;59479;51.902;8.212;2022-12-10T00:31:11;100299.78;;;3.12
71630;BMP280;59479;51.902;8.212;2022-12-10T00:33:37;100303.94;;;3.13
71630;BMP280;59479;51.902;8.212;2022-12-10T00:36:09;100301.44;;;3.13
71630;BMP280;59479;51.902;8.212;2022-12-10T00:38:35;100298.13;;;3.12
71630;BMP280;59479;51.902;8.212;2022-12-10T00:41:00;100291.56;;;3.14
71630;BMP280;59479;51.902;8.212;2022-12-10T00:43:26;100300.72;;;3.17
71630;BMP280;59479;51.902;8.212;2022-12-10T00:45:52;100302.38;;;3.16
71630;BMP280;59479;51.902;8.212;2022-12-10T00:48:18;100304.97;;;3.21
71630;BMP280;59479;51.902;8.212;2022-12-10T00:50:43;100299.13;;;3.19
71630;BMP280;59479;51.902;8.212;2022-12-10T00:53:08;100297.47;;;3.19
71630;BMP280;59479;51.902;8.212;2022-12-10T00:55:34;100307.34;;;3.18
71630;BMP280;59479;51.902;8.212;2022-12-10T00:57:59;100305.78;;;3.20
71630;BMP280;59479;51.902;8.212;2022-12-10T01:00:24;100309.13;;;3.22
71630;BMP280;59479;51.902;8.212;2022-12-10T01:02:50;100310.78;;;3.23
71630;BMP280;59479;51.902;8.212;2022-12-10T01:05:15;100310.84;;;3.24
71630;BMP280;59479;51.902;8.212;2022-12-10T01:07:41;100309.19;;;3.23
71630;BMP280;59479;51.902;8.212;2022-12-10T01:10:06;100310.00;;;3.24
71630;BMP280;59479;51.902;8.212;2022-12-10T01:12:32;100317.50;;;3.25
71630;BMP280;59479;51.902;8.212;2022-12-10T01:14:57;100319.19;;;3.28
71630;BMP280;59479;51.902;8.212;2022-12-10T01:17:22;100322.41;;;3.24
71630;BMP280;59479;51.902;8.212;2022-12-10T01:19:48;100320.69;;;3.20
71630;BMP280;59479;51.902;8.212;2022-12-10T01:22:13;100324.81;;;3.21
71630;BMP280;59479;51.902;8.212;2022-12-10T01:24:38;100324.91;;;3.24
71630;BMP280;59479;51.902;8.212;2022-12-10T01:27:04;100320.81;;;3.26
71630;BMP280;59479;51.902;8.212;2022-12-10T01:29:29;100323.28;;;3.26
71630;BMP280;59479;51.902;8.212;2022-12-10T01:31:56;100323.28;;;3.26
71630;BMP280;59479;51.902;8.212;2022-12-10T01:34:22;100324.94;;;3.25
71630;BMP280;59479;51.902;8.212;2022-12-10T01:36:52;100329.94;;;3.27
71630;BMP280;59479;51.902;8.212;2022-12-10T01:39:19;100327.50;;;3.28
71630;BMP280;59479;51.902;8.212;2022-12-10T01:41:51;100324.25;;;3.31
71630;BMP280;59479;51.902;8.212;2022-12-10T01:46:45;100324.25;;;3.31
71630;BMP280;59479;51.902;8.212;2022-12-10T01:49:13;100330.81;;;3.29
71630;BMP280;59479;51.902;8.212;2022-12-10T01:51:41;100329.13;;;3.28
71630;BMP280;59479;51.902;8.212;2022-12-10T01:54:10;100324.13;;;3.26
71630;BMP280;59479;51.902;8.212;2022-12-10T01:56:38;100325.03;;;3.28
71630;BMP280;59479;51.902;8.212;2022-12-10T01:59:06;100324.06;;;3.23
71630;BMP280;59479;51.902;8.212;2022-12-10T02:09:24;100330.84;;;3.30
71630;BMP280;59479;51.902;8.212;2022-12-10T02:12:09;100332.47;;;3.28
71630;BMP280;59479;51.902;8.212;2022-12-10T02:14:48;100334.88;;;3.25
71630;BMP280;59479;51.902;8.212;2022-12-10T02:17:27;100332.34;;;3.24
71630;BMP280;59479;51.902;8.212;2022-12-10T02:20:09;100334.88;;;3.25
71630;BMP280;59479;51.902;8.212;2022-12-10T02:22:57;100329.91;;;3.25
71630;BMP280;59479;51.902;8.212;2022-12-10T02:25:29;100329.91;;;3.25
71630;BMP280;59479;51.902;8.212;2022-12-10T02:30:42;100329.94;;;3.27
71630;BMP280;59479;51.902;8.212;2022-12-10T02:33:08;100334.09;;;3.28
71630;BMP280;59479;51.902;8.212;2022-12-10T02:35:35;100332.44;;;3.27
71630;BMP280;59479;51.902;8.212;2022-12-10T02:38:09;100330.03;;;3.30
71630;BMP280;59479;51.902;8.212;2022-12-10T02:40:37;100332.50;;;3.30
71630;BMP280;59479;51.902;8.212;2022-12-10T02:43:06;100326.81;;;3.33
71630;BMP280;59479;51.902;8.212;2022-12-10T02:45:32;100323.41;;;3.30
71630;BMP280;59479;51.902;8.212;2022-12-10T02:48:00;100325.81;;;3.27
71630;BMP280;59479;51.902;8.212;2022-12-10T02:50:27;100319.28;;;3.31
71630;BMP280;59479;51.902;8.212;2022-12-10T02:52:52;100332.44;;;3.27
71630;BMP280;59479;51.902;8.212;2022-12-10T03:01:06;100325.84;;;3.29
71630;BMP280;59479;51.902;8.212;2022-12-10T03:04:10;100327.47;;;3.27
71630;BMP280;59479;51.902;8.212;2022-12-10T03:07:03;100319.09;;;3.23
71630;BMP280;59479;51.902;8.212;2022-12-10T03:13:03;100332.31;;;3.22
71630;BMP280;59479;51.902;8.212;2022-12-10T03:15:41;100329.09;;;3.25
71630;BMP280;59479;51.902;8.212;2022-12-10T03:18:25;100337.44;;;3.28
71630;BMP280;59479;51.902;8.212;2022-12-10T03:21:06;100330.81;;;3.29
71630;BMP280;59479;51.902;8.212;2022-12-10T03:24:07;100333.31;;;3.29
71630;BMP280;59479;51.902;8.212;2022-12-10T03:26:40;100336.44;;;3.22
71630;BMP280;59479;51.902;8.212;2022-12-10T03:29:41;100330.66;;;3.23
71630;BMP280;59479;51.902;8.212;2022-12-10T03:32:21;100326.59;;;3.25
71630;BMP280;59479;51.902;8.212;2022-12-10T03:35:19;100327.44;;;3.25
71630;BMP280;59479;51.902;8.212;2022-12-10T03:37:57;100333.25;;;3.27
71630;BMP280;59479;51.902;8.212;2022-12-10T03:40:35;100324.25;;;3.31
71630;BMP280;59479;51.902;8.212;2022-12-10T03:43:27;100330.03;;;3.31
71630;BMP280;59479;51.902;8.212;2022-12-10T03:46:14;100334.16;;;3.31
71630;BMP280;59479;51.902;8.212;2022-12-10T03:49:02;100326.81;;;3.33
71630;BMP280;59479;51.902;8.212;2022-12-10T03:51:41;100326.47;;;3.20
71630;BMP280;59479;51.902;8.212;2022-12-10T03:54:22;100331.44;;;3.20
71630;BMP280;59479;51.902;8.212;2022-12-10T03:57:19;100340.69;;;3.26
71630;BMP280;59479;51.902;8.212;2022-12-10T04:00:03;100338.22;;;3.27
71630;BMP280;59479;51.902;8.212;2022-12-10T04:03:00;100332.53;;;3.31
71630;BMP280;59479;51.902;8.212;2022-12-10T04:05:31;100338.41;;;3.34
71630;BMP280;59479;51.902;8.212;2022-12-10T04:08:12;100338.41;;;3.33
71630;BMP280;59479;51.902;8.212;2022-12-10T04:10:52;100330.91;;;3.32
71630;BMP280;59479;51.902;8.212;2022-12-10T04:13:29;100344.19;;;3.33
71630;BMP280;59479;51.902;8.212;2022-12-10T04:16:17;100338.34;;;3.32
71630;BMP280;59479;51.902;8.212;2022-12-10T04:19:12;100345.81;;;3.32
71630;BMP280;59479;51.902;8.212;2022-12-10T04:21:55;100340.88;;;3.34
71630;BMP280;59479;51.902;8.212;2022-12-10T04:24:54;100341.69;;;3.33
71630;BMP280;59479;51.902;8.212;2022-12-10T04:28:19;100348.31;;;3.33
71630;BMP280;59479;51.902;8.212;2022-12-10T04:30:49;100358.25;;;3.33
71630;BMP280;59479;51.902;8.212;2022-12-10T04:33:33;100344.09;;;3.31
71630;BMP280;59479;51.902;8.212;2022-12-10T04:36:06;100348.31;;;3.33
71630;BMP280;59479;51.902;8.212;2022-12-10T04:38:47;100345.06;;;3.35
71630;BMP280;59479;51.902;8.212;2022-12-10T04:41:43;100341.63;;;3.31
71630;BMP280;59479;51.902;8.212;2022-12-10T04:44:45;100346.47;;;3.25
71630;BMP280;59479;51.902;8.212;2022-12-10T04:47:22;100346.50;;;3.28
71630;BMP280;59479;51.902;8.212;2022-12-10T04:50:01;100339.16;;;3.31
71630;BMP280;59479;51.902;8.212;2022-12-10T04:52:34;100349.91;;;3.30
71630;BMP280;59479;51.902;8.212;2022-12-10T04:55:09;100347.41;;;3.30
71630;BMP280;59479;51.902;8.212;2022-12-10T04:58:15;100349.91;;;3.30
71630;BMP280;59479;51.902;8.212;2022-12-10T05:01:26;100352.50;;;3.35
71630;BMP280;59479;51.902;8.212;2022-12-10T05:04:07;100362.22;;;3.27
71630;BMP280;59479;51.902;8.212;2022-12-10T05:06:38;100363.19;;;3.32
71630;BMP280;59479;51.902;8.212;2022-12-10T05:09:40;100360.69;;;3.32
71630;BMP280;59479;51.902;8.212;2022-12-10T05:12:33;100359.91;;;3.34
71630;BMP280;59479;51.902;8.212;2022-12-10T05:15:15;100359.91;;;3.34
71630;BMP280;59479;51.902;8.212;2022-12-10T05:18:04;100360.75;;;3.34
71630;BMP280;59479;51.902;8.212;2022-12-10T05:20:44;100358.22;;;3.32
71630;BMP280;59479;51.902;8.212;2022-12-10T05:23:19;100353.22;;;3.30
71630;BMP280;59479;51.902;8.212;2022-12-10T05:31:44;100358.25;;;3.33
71630;BMP280;59479;51.902;8.212;2022-12-10T05:34:24;100350.78;;;3.32
71630;BMP280;59479;51.902;8.212;2022-12-10T05:43:10;100359.97;;;3.35
71630;BMP280;59479;51.902;8.212;2022-12-10T05:46:12;100361.66;;;3.36
71630;BMP280;59479;51.902;8.212;2022-12-10T05:48:53;100367.41;;;3.35
71630;BMP280;59479;51.902;8.212;2022-12-10T05:52:02;100363.22;;;3.34
71630;BMP280;59479;51.902;8.212;2022-12-10T05:54:42;100361.69;;;3.38
71630;BMP280;59479;51.902;8.212;2022-12-10T05:57:25;100365.78;;;3.37
71630;BMP280;59479;51.902;8.212;2022-12-10T06:00:03;100370.75;;;3.37
71630;BMP280;59479;51.902;8.212;2022-12-10T06:02:44;100370.63;;;3.32
71630;BMP280;59479;51.902;8.212;2022-12-10T06:05:25;100375.59;;;3.32
71630;BMP280;59479;51.902;8.212;2022-12-10T06:07:53;100375.59;;;3.32
71630;BMP280;59479;51.902;8.212;2022-12-10T06:13:11;100377.22;;;3.30
71630;BMP280;59479;51.902;8.212;2022-12-10T06:18:21;100375.66;;;3.33
71630;BMP280;59479;51.902;8.212;2022-12-10T06:21:13;100373.16;;;3.33
71630;BMP280;59479;51.902;8.212;2022-12-10T06:23:48;100383.94;;;3.33
71630;BMP280;59479;51.902;8.212;2022-12-10T06:26:25;100374.06;;;3.36
71630;BMP280;59479;51.902;8.212;2022-12-10T06:29:02;100378.22;;;3.37
71630;BMP280;59479;51.902;8.212;2022-12-10T06:32:10;100375.72;;;3.37
71630;BMP280;59479;51.902;8.212;2022-12-10T06:41:46;100383.94;;;3.33
71630;BMP280;59479;51.902;8.212;2022-12-10T06:44:26;100386.50;;;3.36
71630;BMP280;59479;51.902;8.212;2022-12-10T06:47:17;100391.38;;;3.33
71630;BMP280;59479;51.902;8.212;2022-12-10T06:49:58;100395.47;;;3.32
71630;BMP280;59479;51.902;8.212;2022-12-10T07:01:50;100393.06;;;3.36
71630;BMP280;59479;51.902;8.212;2022-12-10T07:04:16;100396.44;;;3.36
71630;BMP280;59479;51.902;8.212;2022-12-10T07:06:42;100402.97;;;3.33
71630;BMP280;59479;51.902;8.212;2022-12-10T07:09:07;100401.31;;;3.33
71630;BMP280;59479;51.902;8.212;2022-12-10T07:11:35;100395.59;;;3.37
71630;BMP280;59479;51.902;8.212;2022-12-10T07:14:00;100398.13;;;3.39
71630;BMP280;59479;51.902;8.212;2022-12-10T07:16:28;100396.47;;;3.38
71630;BMP280;59479;51.902;8.212;2022-12-10T07:18:59;100402.19;;;3.35
71630;BMP280;59479;51.902;8.212;2022-12-10T07:21:33;100400.56;;;3.37
71630;BMP280;59479;51.902;8.212;2022-12-10T07:24:03;100402.25;;;3.38
71630;BMP280;59479;51.902;8.212;2022-12-10T07:26:31;100407.31;;;3.41
71630;BMP280;59479;51.902;8.212;2022-12-10T07:29:01;100413.94;;;3.42
71630;BMP280;59479;51.902;8.212;2022-12-10T07:31:27;100411.41;;;3.41
71630;BMP280;59479;51.902;8.212;2022-12-10T07:33:53;100422.22;;;3.41
71630;BMP280;59479;51.902;8.212;2022-12-10T07:36:21;100420.53;;;3.40
71630;BMP280;59479;51.902;8.212;2022-12-10T07:38:48;100423.00;;;3.40
71630;BMP280;59479;51.902;8.212;2022-12-10T07:41:14;100423.81;;;3.39
71630;BMP280;59479;51.902;8.212;2022-12-10T07:43:41;100420.53;;;3.40
71630;BMP280;59479;51.902;8.212;2022-12-10T07:46:12;100419.78;;;3.43
71630;BMP280;59479;51.902;8.212;2022-12-10T07:48:39;100420.59;;;3.43
71630;BMP280;59479;51.902;8.212;2022-12-10T07:51:06;100437.16;;;3.43
71630;BMP280;59479;51.902;8.212;2022-12-10T07:53:31;100429.72;;;3.43
71630;BMP280;59479;51.902;8.212;2022-12-10T07:55:57;100432.22;;;3.44
71630;BMP280;59479;51.902;8.212;2022-12-10T07:58:23;100428.84;;;3.42
71630;BMP280;59479;51.902;8.212;2022-12-10T08:03:33;100443.75;;;3.42
71630;BMP280;59479;51.902;8.212;2022-12-10T08:06:08;100433.84;;;3.44
71630;BMP280;59479;51.902;8.212;2022-12-10T08:08:35;100446.31;;;3.45
71630;BMP280;59479;51.902;8.212;2022-12-10T08:11:03;100448.06;;;3.49
71630;BMP280;59479;51.902;8.212;2022-12-10T08:13:29;100453.84;;;3.48
71630;BMP280;59479;51.902;8.212;2022-12-10T08:16:07;100450.53;;;3.48
71630;BMP280;59479;51.902;8.212;2022-12-10T08:18:33;100451.25;;;3.44
71630;BMP280;59479;51.902;8.212;2022-12-10T08:21:06;100450.50;;;3.46
71630;BMP280;59479;51.902;8.212;2022-12-10T08:23:32;100447.97;;;3.45
71630;BMP280;59479;51.902;8.212;2022-12-10T08:25:58;100459.63;;;3.47
71630;BMP280;59479;51.902;8.212;2022-12-10T08:28:26;100460.50;;;3.49
71630;BMP280;59479;51.902;8.212;2022-12-10T08:30:52;100462.97;;;3.49
71630;BMP280;59479;51.902;8.212;2022-12-10T08:33:20;100463.78;;;3.48
71630;BMP280;59479;51.902;8.212;2022-12-10T08:35:46;100466.28;;;3.48
71630;BMP280;59479;51.902;8.212;2022-12-10T08:38:11;100477.09;;;3.50
71630;BMP280;59479;51.902;8.212;2022-12-10T08:40:40;100484.59;;;3.52
71630;BMP280;59479;51.902;8.212;2022-12-10T08:43:06;100483.81;;;3.54
71630;BMP280;59479;51.902;8.212;2022-12-10T08:45:31;100485.50;;;3.55
71630;BMP280;59479;51.902;8.212;2022-12-10T08:47:57;100488.78;;;3.54
71630;BMP280;59479;51.902;8.212;2022-12-10T08:50:22;100485.50;;;3.55
71630;BMP280;59479;51.902;8.212;2022-12-10T08:52:48;100483.81;;;3.54
71630;BMP280;59479;51.902;8.212;2022-12-10T08:55:13;100488.72;;;3.53
71630;BMP280;59479;51.902;8.212;2022-12-10T08:57:38;100489.63;;;3.55
71630;BMP280;59479;51.902;8.212;2022-12-10T09:00:04;100490.38;;;3.52
71630;BMP280;59479;51.902;8.212;2022-12-10T09:02:30;100483.72;;;3.50
71630;BMP280;59479;51.902;8.212;2022-12-10T09:04:55;100482.97;;;3.54
71630;BMP280;59479;51.902;8.212;2022-12-10T09:07:20;100489.59;;;3.53
71630;BMP280;59479;51.902;8.212;2022-12-10T09:09:47;100496.34;;;3.59
71630;BMP280;59479;51.902;8.212;2022-12-10T09:12:12;100491.50;;;3.63
71630;BMP280;59479;51.902;8.212;2022-12-10T09:14:37;100499.97;;;3.70
71630;BMP280;59479;51.902;8.212;2022-12-10T09:17:05;100499.97;;;3.70
71630;BMP280;59479;51.902;8.212;2022-12-10T09:19:31;100504.03;;;3.68
71630;BMP280;59479;51.902;8.212;2022-12-10T09:21:56;100507.28;;;3.65
71630;BMP280;59479;51.902;8.212;2022-12-10T09:24:22;100510.66;;;3.67
71630;BMP280;59479;51.902;8.212;2022-12-10T09:26:47;100510.75;;;3.70
71630;BMP280;59479;51.902;8.212;2022-12-10T09:29:12;100511.53;;;3.69
71630;BMP280;59479;51.902;8.212;2022-12-10T09:31:38;100518.09;;;3.67
71630;BMP280;59479;51.902;8.212;2022-12-10T09:34:03;100513.16;;;3.67
71630;BMP280;59479;51.902;8.212;2022-12-10T09:36:29;100523.06;;;3.67
71630;BMP280;59479;51.902;8.212;2022-12-10T09:38:54;100519.06;;;3.72
71630;BMP280;59479;51.902;8.212;2022-12-10T09:41:42;100522.50;;;3.77
71630;BMP280;59479;51.902;8.212;2022-12-10T09:46:55;100518.31;;;3.75
71630;BMP280;59479;51.902;8.212;2022-12-10T09:49:33;100524.88;;;3.73
71630;BMP280;59479;51.902;8.212;2022-12-10T09:52:05;100519.84;;;3.71
71630;BMP280;59479;51.902;8.212;2022-12-10T09:54:34;100515.72;;;3.70
71630;BMP280;59479;51.902;8.212;2022-12-10T09:57:04;100517.38;;;3.71
71630;BMP280;59479;51.902;8.212;2022-12-10T09:59:39;100520.75;;;3.73
71630;BMP280;59479;51.902;8.212;2022-12-10T10:02:26;100516.66;;;3.75
71630;BMP280;59479;51.902;8.212;2022-12-10T10:07:33;100510.97;;;3.79
71630;BMP280;59479;51.902;8.212;2022-12-10T10:10:02;100511.03;;;3.82
71630;BMP280;59479;51.902;8.212;2022-12-10T10:12:31;100509.34;;;3.81
71630;BMP280;59479;51.902;8.212;2022-12-10T10:14:56;100512.72;;;3.83
71630;BMP280;59479;51.902;8.212;2022-12-10T10:17:34;100507.59;;;3.77
71630;BMP280;59479;51.902;8.212;2022-12-10T10:20:01;100509.22;;;3.75
71630;BMP280;59479;51.902;8.212;2022-12-10T10:22:26;100504.31;;;3.78
71630;BMP280;59479;51.902;8.212;2022-12-10T10:30:22;100499.09;;;3.69
71630;BMP280;59479;51.902;8.212;2022-12-10T10:32:50;100503.41;;;3.75
71630;BMP280;59479;51.902;8.212;2022-12-10T10:35:42;100516.78;;;3.79
71630;BMP280;59479;51.902;8.212;2022-12-10T10:38:36;100505.94;;;3.77
71630;BMP280;59479;51.902;8.212;2022-12-10T10:41:06;100511.78;;;3.78
71630;BMP280;59479;51.902;8.212;2022-12-10T10:43:40;100510.22;;;3.81
71630;BMP280;59479;51.902;8.212;2022-12-10T10:46:11;100496.13;;;3.82
71630;BMP280;59479;51.902;8.212;2022-12-10T10:48:37;100506.78;;;3.76
71630;BMP280;59479;51.902;8.212;2022-12-10T10:56:15;100507.84;;;3.87
71630;BMP280;59479;51.902;8.212;2022-12-10T10:58:49;100499.59;;;3.88
71630;BMP280;59479;51.902;8.212;2022-12-10T11:01:15;100505.50;;;3.92
71630;BMP280;59479;51.902;8.212;2022-12-10T11:03:57;100512.69;;;3.81
71630;BMP280;59479;51.902;8.212;2022-12-10T11:06:23;100509.44;;;3.84
71630;BMP280;59479;51.902;8.212;2022-12-10T11:08:51;100508.38;;;3.75
71630;BMP280;59479;51.902;8.212;2022-12-10T11:11:22;100514.25;;;3.78
71630;BMP280;59479;51.902;8.212;2022-12-10T11:13:48;100511.13;;;3.85
71630;BMP280;59479;51.902;8.212;2022-12-10T11:16:22;100509.44;;;3.84
71630;BMP280;59479;51.902;8.212;2022-12-10T11:18:57;100519.31;;;3.82
71630;BMP280;59479;51.902;8.212;2022-12-10T11:21:28;100510.00;;;3.74
71630;BMP280;59479;51.902;8.212;2022-12-10T11:23:55;100512.66;;;3.80
71630;BMP280;59479;51.902;8.212;2022-12-10T11:42:42;100514.34;;;3.82
71630;BMP280;59479;51.902;8.212;2022-12-10T11:45:21;100514.31;;;3.79
71630;BMP280;59479;51.902;8.212;2022-12-10T11:48:09;100517.72;;;3.84
71630;BMP280;59479;51.902;8.212;2022-12-10T11:50:49;100514.41;;;3.84
71630;BMP280;59479;51.902;8.212;2022-12-10T11:56:34;100509.66;;;3.93
71630;BMP280;59479;51.902;8.212;2022-12-10T12:01:39;100507.97;;;3.92
71630;BMP280;59479;51.902;8.212;2022-12-10T12:09:57;100519.53;;;3.90
71630;BMP280;59479;51.902;8.212;2022-12-10T12:15:25;100519.53;;;3.90
71630;BMP280;59479;51.902;8.212;2022-12-10T12:17:58;100512.94;;;3.92
71630;BMP280;59479;51.902;8.212;2022-12-10T12:20:28;100523.63;;;3.89
71630;BMP280;59479;51.902;8.212;2022-12-10T12:23:02;100512.94;;;3.92
71630;BMP280;59479;51.902;8.212;2022-12-10T12:25:35;100511.34;;;3.94
71630;BMP280;59479;51.902;8.212;2022-12-10T12:28:22;100521.19;;;3.91
71630;BMP280;59479;51.902;8.212;2022-12-10T12:30:58;100522.59;;;3.80
71630;BMP280;59479;51.902;8.212;2022-12-10T12:36:20;100523.63;;;3.89
71630;BMP280;59479;51.902;8.212;2022-12-10T12:47:22;100525.88;;;3.79
71630;BMP280;59479;51.902;8.212;2022-12-10T12:49:52;100519.16;;;3.75
71630;BMP280;59479;51.902;8.212;2022-12-10T12:54:49;100524.25;;;3.81
71630;BMP280;59479;51.902;8.212;2022-12-10T12:57:28;100507.91;;;3.89
71630;BMP280;59479;51.902;8.212;2022-12-10T13:00:01;100521.16;;;3.88
71630;BMP280;59479;51.902;8.212;2022-12-10T13:05:19;100527.66;;;3.83
71630;BMP280;59479;51.902;8.212;2022-12-10T13:13:32;100526.41;;;4.00
71630;BMP280;59479;51.902;8.212;2022-12-10T13:27:05;100528.91;;;4.00
71630;BMP280;59479;51.902;8.212;2022-12-10T13:32:18;100529.78;;;4.02
71630;BMP280;59479;51.902;8.212;2022-12-10T13:34:44;100530.44;;;3.95
71630;BMP280;59479;51.902;8.212;2022-12-10T13:39:53;100529.91;;;4.08
71630;BMP280;59479;51.902;8.212;2022-12-10T13:42:29;100528.31;;;4.10
71630;BMP280;59479;51.902;8.212;2022-12-10T13:47:50;100534.88;;;4.08
71630;BMP280;59479;51.902;8.212;2022-12-10T13:50:20;100536.56;;;4.09
71630;BMP280;59479;51.902;8.212;2022-12-10T13:56:11;100544.78;;;4.05
71630;BMP280;59479;51.902;8.212;2022-12-10T14:02:02;100546.47;;;4.07
71630;BMP280;59479;51.902;8.212;2022-12-10T14:04:38;100548.13;;;4.07
71630;BMP280;59479;51.902;8.212;2022-12-10T14:07:11;100552.09;;;4.00
71630;BMP280;59479;51.902;8.212;2022-12-10T14:09:54;100550.19;;;3.90
71630;BMP280;59479;51.902;8.212;2022-12-10T14:12:26;100555.28;;;3.95
71630;BMP280;59479;51.902;8.212;2022-12-10T14:14:59;100555.47;;;4.02
71630;BMP280;59479;51.902;8.212;2022-12-10T14:17:32;100551.28;;;4.00
71630;BMP280;59479;51.902;8.212;2022-12-10T14:20:03;100553.72;;;3.98
71630;BMP280;59479;51.902;8.212;2022-12-10T14:22:45;100559.41;;;3.94
71630;BMP280;59479;51.902;8.212;2022-12-10T14:25:20;100555.34;;;3.98
71630;BMP280;59479;51.902;8.212;2022-12-10T14:27:48;100555.34;;;3.96
71630;BMP280;59479;51.902;8.212;2022-12-10T14:30:21;100559.66;;;4.03
71630;BMP280;59479;51.902;8.212;2022-12-10T14:32:49;100557.88;;;3.99
71630;BMP280;59479;51.902;8.212;2022-12-10T14:35:27;100558.75;;;4.00
71630;BMP280;59479;51.902;8.212;2022-12-10T14:37:56;100555.34;;;3.98
71630;BMP280;59479;51.902;8.212;2022-12-10T14:40:25;100562.94;;;4.02
71630;BMP280;59479;51.902;8.212;2022-12-10T14:42:56;100563.53;;;3.94
71630;BMP280;59479;51.902;8.212;2022-12-10T14:45:27;100556.34;;;4.04
71630;BMP280;59479;51.902;8.212;2022-12-10T14:47:55;100564.66;;;4.05
71630;BMP280;59479;51.902;8.212;2022-12-10T14:50:21;100564.72;;;4.08
71630;BMP280;59479;51.902;8.212;2022-12-10T14:52:51;100572.91;;;4.04
71630;BMP280;59479;51.902;8.212;2022-12-10T14:55:20;100577.81;;;4.01
71630;BMP280;59479;51.902;8.212;2022-12-10T14:58:05;100575.97;;;3.94
71630;BMP280;59479;51.902;8.212;2022-12-10T15:00:34;100572.75;;;3.98
71630;BMP280;59479;51.902;8.212;2022-12-10T15:03:02;100572.78;;;3.99
71630;BMP280;59479;51.902;8.212;2022-12-10T15:05:32;100575.22;;;3.96
71630;BMP280;59479;51.902;8.212;2022-12-10T15:08:02;100571.13;;;3.98
71630;BMP280;59479;51.902;8.212;2022-12-10T15:10:33;100574.44;;;3.99
71630;BMP280;59479;51.902;8.212;2022-12-10T15:12:59;100582.78;;;4.01
71630;BMP280;59479;51.902;8.212;2022-12-10T15:15:36;100579.50;;;4.02
71630;BMP280;59479;51.902;8.212;2022-12-10T15:18:15;100581.88;;;3.97
71630;BMP280;59479;51.902;8.212;2022-12-10T15:28:27;100584.00;;;3.84
71630;BMP280;59479;51.902;8.212;2022-12-10T15:30:57;100584.09;;;3.87
71630;BMP280;59479;51.902;8.212;2022-12-10T15:33:40;100577.50;;;3.89
71630;BMP280;59479;51.902;8.212;2022-12-10T15:36:15;100583.31;;;3.89
71630;BMP280;59479;51.902;8.212;2022-12-10T15:38:45;100585.91;;;3.94
71630;BMP280;59479;51.902;8.212;2022-12-10T15:41:42;100582.53;;;3.90
71630;BMP280;59479;51.902;8.212;2022-12-10T15:47:22;100581.59;;;3.87
71630;BMP280;59479;51.902;8.212;2022-12-10T15:49:49;100582.22;;;3.78
71630;BMP280;59479;51.902;8.212;2022-12-10T15:52:26;100587.31;;;3.83
71630;BMP280;59479;51.902;8.212;2022-12-10T15:54:53;100585.56;;;3.80
71630;BMP280;59479;51.902;8.212;2022-12-10T15:59:54;100580.56;;;3.79
71630;BMP280;59479;51.902;8.212;2022-12-10T16:02:31;100577.19;;;3.77
71630;BMP280;59479;51.902;8.212;2022-12-10T16:04:59;100584.59;;;3.75
71630;BMP280;59479;51.902;8.212;2022-12-10T16:07:24;100579.72;;;3.78
71630;BMP280;59479;51.902;8.212;2022-12-10T16:09:49;100583.91;;;3.81
71630;BMP280;59479;51.902;8.212;2022-12-10T16:12:16;100587.13;;;3.77
71630;BMP280;59479;51.902;8.212;2022-12-10T16:14:47;100592.06;;;3.75
71630;BMP280;59479;51.902;8.212;2022-12-10T16:17:13;100583.97;;;3.82
71630;BMP280;59479;51.902;8.212;2022-12-10T16:19:38;100593.84;;;3.81
71630;BMP280;59479;51.902;8.212;2022-12-10T16:22:04;100584.00;;;3.84
71630;BMP280;59479;51.902;8.212;2022-12-10T16:24:30;100587.22;;;3.80
71630;BMP280;59479;51.902;8.212;2022-12-10T16:26:56;100586.44;;;3.82
71630;BMP280;59479;51.902;8.212;2022-12-10T16:29:22;100583.16;;;3.83
71630;BMP280;59479;51.902;8.212;2022-12-10T16:31:48;100582.38;;;3.86
71630;BMP280;59479;51.902;8.212;2022-12-10T16:34:13;100585.69;;;3.85
71630;BMP280;59479;51.902;8.212;2022-12-10T16:36:39;100588.09;;;3.82
71630;BMP280;59479;51.902;8.212;2022-12-10T16:39:04;100587.91;;;3.75
71630;BMP280;59479;51.902;8.212;2022-12-10T16:41:30;100589.53;;;3.74
71630;BMP280;59479;51.902;8.212;2022-12-10T16:43:56;100584.53;;;3.73
71630;BMP280;59479;51.902;8.212;2022-12-10T16:46:21;100596.16;;;3.74
71630;BMP280;59479;51.902;8.212;2022-12-10T16:48:47;100589.56;;;3.75
71630;BMP280;59479;51.902;8.212;2022-12-10T16:51:21;100578.03;;;3.77
71630;BMP280;59479;51.902;8.212;2022-12-10T16:53:48;100597.91;;;3.77
71630;BMP280;59479;51.902;8.212;2022-12-10T16:56:14;100596.03;;;3.69
71630;BMP280;59479;51.902;8.212;2022-12-10T16:58:40;100601.19;;;3.75
71630;BMP280;59479;51.902;8.212;2022-12-10T17:01:15;100597.06;;;3.77
71630;BMP280;59479;51.902;8.212;2022-12-10T17:03:41;100598.50;;;3.69
71630;BMP280;59479;51.902;8.212;2022-12-10T17:06:09;100597.63;;;3.67
71630;BMP280;59479;51.902;8.212;2022-12-10T17:08:34;100589.22;;;3.62
71630;BMP280;59479;51.902;8.212;2022-12-10T17:11:00;100590.19;;;3.67
71630;BMP280;59479;51.902;8.212;2022-12-10T17:13:44;100591.16;;;3.72
71630;BMP280;59479;51.902;8.212;2022-12-10T17:16:14;100592.78;;;3.72
71630;BMP280;59479;51.902;8.212;2022-12-10T17:18:40;100595.25;;;3.70
71630;BMP280;59479;51.902;8.212;2022-12-10T17:21:06;100608.63;;;3.75
71630;BMP280;59479;51.902;8.212;2022-12-10T17:23:31;100609.41;;;3.74
71630;BMP280;59479;51.902;8.212;2022-12-10T17:25:57;100615.13;;;3.70
71630;BMP280;59479;51.902;8.212;2022-12-10T17:28:22;100616.00;;;3.72